createdAt,value
2022-09-02T00:02:57.177Z,67.08
2022-09-02T00:08:01.539Z,67.02
2022-09-02T00:13:04.699Z,67.32
2022-09-02T00:18:12.540Z,67.29
2022-09-02T00:23:20.345Z,67.37
2022-09-02T00:28:23.273Z,67.21
2022-09-02T00:33:27.102Z,67.56
2022-09-02T00:38:33.716Z,67.59
2022-09-02T00:43:44.167Z,67.85
2022-09-02T00:48:49.327Z,67.87
2022-09-02T00:53:53.678Z,67.94
2022-09-02T00:58:56.813Z,67.99
2022-09-02T01:03:59.650Z,68.41
2022-09-02T01:09:08.398Z,68.58
2022-09-02T01:14:13.818Z,68.56
2022-09-02T01:19:22.947Z,68.43
2022-09-02T01:24:30.047Z,68.79
2022-09-02T01:29:32.775Z,68.57
2022-09-02T01:34:37.877Z,68.78
2022-09-02T01:39:42.678Z,69.02
2022-09-02T01:44:46.155Z,69.07
2022-09-02T01:49:50.680Z,69.04
2022-09-02T01:54:55.294Z,69.33
2022-09-02T01:59:58.253Z,69.49
2022-09-02T02:05:02.692Z,69.66
2022-09-02T02:10:08.174Z,69.82
2022-09-02T02:15:15.034Z,69.91
2022-09-02T02:20:19.582Z,69.86
2022-09-02T02:25:24.046Z,70.10
2022-09-02T02:30:29.819Z,70.17
2022-09-02T02:35:33.525Z,70.21
2022-09-02T02:40:38.492Z,70.41
2022-09-02T02:45:41.901Z,70.52
2022-09-02T02:50:44.979Z,70.33
2022-09-02T02:55:49.889Z,70.45
2022-09-02T03:00:54.176Z,70.51
2022-09-02T03:05:58.074Z,70.85
2022-09-02T03:11:06.986Z,71.11
2022-09-02T03:16:14.049Z,70.74
2022-09-02T03:21:18.303Z,70.93
2022-09-02T03:26:25.768Z,70.97
2022-09-02T03:31:29.337Z,71.06
2022-09-02T03:36:36.162Z,71.13
2022-09-02T03:41:42.002Z,71.32
2022-09-02T03:46:45.587Z,71.55
2022-09-02T03:51:48.452Z,71.46
2022-09-02T03:56:53.526Z,71.52
2022-09-02T04:01:56.901Z,71.61
2022-09-02T04:07:00.503Z,71.66
2022-09-02T04:12:07.075Z,72.04
2022-09-02T04:17:10.809Z,72.03
2022-09-02T04:22:13.685Z,72.03
2022-09-02T04:27:17.984Z,71.97
2022-09-02T04:32:21.792Z,72.36
2022-09-02T04:37:26.339Z,72.09
2022-09-02T04:42:31.074Z,72.09
2022-09-02T04:47:34.192Z,72.02
2022-09-02T04:52:38.023Z,72.24
2022-09-02T04:57:42.596Z,72.05
2022-09-02T05:02:45.677Z,72.12
2022-09-02T05:07:49.408Z,72.07
2022-09-02T05:12:54.427Z,72.04
2022-09-02T05:17:57.505Z,71.83
2022-09-02T05:23:00.870Z,71.63
2022-09-02T05:28:06.422Z,71.59
2022-09-02T05:33:10.460Z,71.47
2022-09-02T05:38:17.342Z,71.14
2022-09-02T05:43:24.009Z,71.01
2022-09-02T05:48:44.415Z,70.74
2022-09-02T05:53:47.937Z,70.89
2022-09-02T05:58:52.974Z,70.63
2022-09-02T06:03:57.463Z,70.45
2022-09-02T06:09:00.580Z,70.45
2022-09-02T06:14:07.452Z,70.28
2022-09-02T06:19:16.442Z,70.30
2022-09-02T06:24:24.601Z,70.20
2022-09-02T06:29:29.081Z,70.03
2022-09-02T06:34:32.105Z,69.76
2022-09-02T06:39:35.921Z,69.41
2022-09-02T06:44:41.467Z,69.34
2022-09-02T06:49:44.307Z,69.28
2022-09-02T06:54:47.176Z,68.92
2022-09-02T06:59:52.882Z,68.53
2022-09-02T07:05:16.009Z,68.35
2022-09-02T07:10:21.809Z,68.13
2022-09-02T07:15:30.042Z,67.87
2022-09-02T07:20:33.366Z,67.39
2022-09-02T07:25:39.479Z,66.95
2022-09-02T07:30:45.899Z,66.82
2022-09-02T07:35:53.148Z,66.34
2022-09-02T07:40:57.478Z,65.87
2022-09-02T07:46:06.053Z,65.47
2022-09-02T07:51:09.512Z,65.09
2022-09-02T07:56:15.032Z,64.66
2022-09-02T08:01:23.488Z,64.40
2022-09-02T08:06:34.819Z,64.08
2022-09-02T08:11:39.804Z,63.74
2022-09-02T08:16:44.061Z,63.49
2022-09-02T08:21:46.920Z,63.11
2022-09-02T08:26:49.898Z,62.46
2022-09-02T08:31:54.332Z,62.11
2022-09-02T08:36:57.947Z,61.76
2022-09-02T08:42:05.930Z,61.36
2022-09-02T08:47:13.766Z,60.59
2022-09-02T08:52:23.705Z,60.45
2022-09-02T08:57:27.625Z,59.74
2022-09-02T09:02:46.655Z,60.61
2022-09-02T09:08:00.869Z,60.73
2022-09-02T09:13:20.286Z,60.87
2022-09-02T09:18:29.302Z,60.32
2022-09-02T09:23:34.692Z,60.48
2022-09-02T09:28:45.381Z,60.00
2022-09-02T09:33:59.934Z,59.41
2022-09-02T09:39:18.609Z,58.66
2022-09-02T09:44:45.332Z,58.26
2022-09-02T09:49:51.415Z,57.61
2022-09-02T09:55:13.588Z,57.39
2022-09-02T10:00:22.007Z,56.82
2022-09-02T10:05:36.181Z,56.12
2022-09-02T10:10:39.029Z,55.96
2022-09-02T10:15:46.490Z,54.83
2022-09-02T10:21:11.774Z,54.68
2022-09-02T10:31:39.375Z,53.87
2022-09-02T10:36:58.834Z,52.80
2022-09-02T10:42:10.361Z,51.78
2022-09-02T10:47:20.448Z,51.26
2022-09-02T10:52:58.003Z,51.92
2022-09-02T10:58:03.036Z,51.62
2022-09-02T11:03:16.273Z,51.41
2022-09-02T11:08:29.573Z,50.23
2022-09-02T11:13:38.721Z,50.22
2022-09-02T11:18:46.156Z,50.40
2022-09-02T11:23:55.002Z,50.25
2022-09-02T11:29:02.974Z,48.88
2022-09-02T11:34:17.523Z,47.89
2022-09-02T11:39:36.467Z,47.13
2022-09-02T11:45:14.527Z,43.07
2022-09-02T11:50:56.140Z,42.82
2022-09-02T11:56:03.094Z,40.80
2022-09-02T12:01:19.833Z,38.95
2022-09-02T12:06:27.774Z,43.18
2022-09-02T12:11:50.155Z,45.53
2022-09-02T12:17:03.857Z,47.15
2022-09-02T12:22:28.300Z,46.74
2022-09-02T12:27:36.595Z,45.46
2022-09-02T12:33:05.225Z,46.31
2022-09-02T12:38:41.851Z,46.67
2022-09-02T12:44:05.560Z,46.91
2022-09-02T12:49:14.853Z,46.89
2022-09-02T12:54:18.282Z,46.89
2022-09-02T12:59:29.722Z,46.58
2022-09-02T13:04:39.954Z,46.16
2022-09-02T13:09:51.541Z,45.89
2022-09-02T13:15:03.057Z,45.99
2022-09-02T13:20:33.926Z,46.08
2022-09-02T13:25:51.560Z,46.02
2022-09-02T13:31:06.042Z,45.45
2022-09-02T13:36:09.183Z,44.98
2022-09-02T13:41:11.958Z,44.58
2022-09-02T13:46:16.062Z,44.04
2022-09-02T13:51:18.812Z,42.88
2022-09-02T13:56:27.204Z,42.54
2022-09-02T14:01:34.012Z,43.00
2022-09-02T14:06:38.812Z,42.97
2022-09-02T14:11:43.776Z,42.82
2022-09-02T14:16:47.874Z,41.62
2022-09-02T14:21:53.379Z,40.61
2022-09-02T14:26:57.221Z,39.87
2022-09-02T14:32:15.174Z,40.33
2022-09-02T14:37:24.087Z,41.26
2022-09-02T14:42:29.319Z,41.45
2022-09-02T14:47:37.839Z,41.81
2022-09-02T14:52:47.740Z,43.12
2022-09-02T14:58:02.674Z,43.96
2022-09-02T15:03:08.135Z,44.36
2022-09-02T15:08:11.065Z,43.08
2022-09-02T15:13:15.933Z,41.55
2022-09-02T15:18:20.285Z,42.56
2022-09-02T15:23:24.253Z,43.58
2022-09-02T15:28:27.804Z,43.88
2022-09-02T15:33:32.336Z,44.43
2022-09-02T15:38:35.832Z,44.38
2022-09-02T15:43:38.740Z,42.33
2022-09-02T15:48:42.781Z,41.05
2022-09-02T15:53:45.694Z,42.01
2022-09-02T15:58:48.881Z,42.76
2022-09-02T16:03:53.181Z,43.35
2022-09-02T16:08:56.633Z,43.32
2022-09-02T16:13:59.342Z,43.96
2022-09-02T16:19:05.083Z,44.00
2022-09-02T16:24:08.640Z,44.33
2022-09-02T16:29:13.700Z,44.26
2022-09-02T16:34:19.933Z,44.30
2022-09-02T16:39:23.089Z,44.36
2022-09-02T16:44:26.674Z,44.68
2022-09-02T16:49:32.067Z,44.65
2022-09-02T16:54:38.670Z,44.66
2022-09-02T16:59:43.382Z,44.86
2022-09-02T17:04:47.571Z,45.21
2022-09-02T17:09:50.235Z,45.40
2022-09-02T17:14:53.012Z,45.45
2022-09-02T17:19:57.077Z,45.30
2022-09-02T17:24:59.846Z,45.83
2022-09-02T17:30:02.883Z,45.57
2022-09-02T17:35:08.478Z,45.69
2022-09-02T17:40:33.075Z,45.98
2022-09-02T17:45:37.459Z,46.44
2022-09-02T17:50:41.565Z,46.60
2022-09-02T17:55:44.831Z,46.92
2022-09-02T18:00:50.186Z,46.91
2022-09-02T18:06:05.858Z,46.93
2022-09-02T18:11:08.754Z,47.14
2022-09-02T18:16:23.511Z,47.42
2022-09-02T18:21:30.680Z,47.31
2022-09-02T18:26:44.692Z,47.28
2022-09-02T18:31:52.774Z,47.56
2022-09-02T18:37:05.820Z,47.77
2022-09-02T18:42:18.347Z,47.92
2022-09-02T18:47:23.344Z,48.17
2022-09-02T18:52:29.620Z,48.41
2022-09-02T18:57:38.723Z,48.57
2022-09-02T19:02:46.384Z,48.79
2022-09-02T19:08:14.566Z,49.02
2022-09-02T19:13:18.878Z,49.17
2022-09-02T19:18:22.057Z,49.25
2022-09-02T19:23:26.530Z,49.27
2022-09-02T19:28:29.821Z,49.50
2022-09-02T19:33:34.785Z,49.65
2022-09-02T19:38:39.214Z,49.76
2022-09-02T19:43:42.503Z,49.99
2022-09-02T19:48:45.219Z,50.04
2022-09-02T19:53:49.327Z,50.11
2022-09-02T19:58:52.431Z,50.20
2022-09-02T20:03:55.208Z,50.30
2022-09-02T20:08:59.477Z,50.39
2022-09-02T20:14:04.192Z,50.57
2022-09-02T20:19:07.086Z,50.72
2022-09-02T20:24:13.630Z,50.87
2022-09-02T20:29:29.622Z,50.85
2022-09-02T20:34:51.089Z,51.13
2022-09-02T20:40:08.807Z,51.32
2022-09-02T20:45:16.324Z,51.56
2022-09-02T20:50:31.974Z,51.77
2022-09-02T20:55:40.328Z,52.04
2022-09-02T21:00:47.270Z,52.12
2022-09-02T21:05:56.094Z,52.19
2022-09-02T21:11:02.437Z,52.21
2022-09-02T21:16:08.756Z,52.23
2022-09-02T21:21:17.292Z,52.29
2022-09-02T21:26:25.173Z,52.47
2022-09-02T21:31:32.503Z,52.48
2022-09-02T21:36:37.005Z,52.45
2022-09-02T21:41:44.054Z,52.48
2022-09-02T21:47:01.182Z,52.56
2022-09-02T21:52:10.366Z,52.50
2022-09-02T21:57:23.379Z,52.55
2022-09-02T22:02:32.780Z,52.61
2022-09-02T22:07:40.135Z,52.70
2022-09-02T22:12:52.021Z,52.77
2022-09-02T22:18:00.159Z,52.93
2022-09-02T22:23:05.537Z,53.12
2022-09-02T22:28:12.929Z,53.11
2022-09-02T22:33:19.009Z,53.13
2022-09-02T22:38:26.309Z,53.29
2022-09-02T22:43:34.476Z,53.39
2022-09-02T22:49:06.771Z,53.33
2022-09-02T22:54:09.824Z,53.54
2022-09-02T22:59:26.499Z,53.50
2022-09-02T23:04:42.035Z,53.61
2022-09-02T23:09:45.038Z,53.64
2022-09-02T23:14:53.732Z,54.03
2022-09-02T23:20:12.331Z,54.02
2022-09-02T23:25:37.728Z,54.43
2022-09-02T23:30:52.383Z,54.75
2022-09-02T23:36:02.853Z,55.08
2022-09-02T23:41:08.954Z,55.17
2022-09-02T23:46:20.087Z,55.35
2022-09-02T23:51:30.250Z,55.65
2022-09-02T23:56:46.626Z,55.84
